sensor_id;sensor_type;location;lat;lon;timestamp;P1;durP1;ratioP1;P2;durP2;ratioP2
18822;SDS011;9540;51.550;7.980;2022-08-19T00:01:24;14.73;;;11.15;;
18822;SDS011;9540;51.550;7.980;2022-08-19T00:03:54;15.43;;;11.02;;
18822;SDS011;9540;51.550;7.980;2022-08-19T00:06:21;15.93;;;12.07;;
18822;SDS011;9540;51.550;7.980;2022-08-19T00:08:50;17.77;;;12.88;;
18822;SDS011;9540;51.550;7.980;2022-08-19T00:11:17;15.90;;;11.73;;
18822;SDS011;9540;51.550;7.980;2022-08-19T00:13:45;18.77;;;13.50;;
18822;SDS011;9540;51.550;7.980;2022-08-19T00:16:13;16.75;;;12.27;;
18822;SDS011;9540;51.550;7.980;2022-08-19T00:18:40;17.83;;;12.45;;
18822;SDS011;9540;51.550;7.980;2022-08-19T00:21:07;19.75;;;13.77;;
18822;SDS011;9540;51.550;7.980;2022-08-19T00:23:35;15.30;;;12.63;;
18822;SDS011;9540;51.550;7.980;2022-08-19T00:26:04;19.60;;;13.00;;
18822;SDS011;9540;51.550;7.980;2022-08-19T00:28:32;17.42;;;13.23;;
18822;SDS011;9540;51.550;7.980;2022-08-19T00:31:01;19.10;;;13.10;;
18822;SDS011;9540;51.550;7.980;2022-08-19T00:33:29;17.95;;;14.38;;
18822;SDS011;9540;51.550;7.980;2022-08-19T00:35:58;18.73;;;14.30;;
18822;SDS011;9540;51.550;7.980;2022-08-19T00:38:25;16.58;;;12.38;;
18822;SDS011;9540;51.550;7.980;2022-08-19T00:40:53;19.30;;;15.20;;
18822;SDS011;9540;51.550;7.980;2022-08-19T00:43:22;20.17;;;15.18;;
18822;SDS011;9540;51.550;7.980;2022-08-19T00:45:51;21.20;;;15.60;;
18822;SDS011;9540;51.550;7.980;2022-08-19T00:48:19;23.92;;;16.40;;
18822;SDS011;9540;51.550;7.980;2022-08-19T00:50:47;19.77;;;14.90;;
18822;SDS011;9540;51.550;7.980;2022-08-19T00:53:19;22.15;;;15.13;;
18822;SDS011;9540;51.550;7.980;2022-08-19T00:55:49;20.98;;;16.42;;
18822;SDS011;9540;51.550;7.980;2022-08-19T00:58:31;22.33;;;16.77;;
18822;SDS011;9540;51.550;7.980;2022-08-19T01:01:00;24.95;;;17.67;;
18822;SDS011;9540;51.550;7.980;2022-08-19T01:03:27;27.48;;;18.60;;
18822;SDS011;9540;51.550;7.980;2022-08-19T01:05:54;31.00;;;18.83;;
18822;SDS011;9540;51.550;7.980;2022-08-19T01:08:22;22.13;;;16.88;;
18822;SDS011;9540;51.550;7.980;2022-08-19T01:10:50;24.05;;;16.38;;
18822;SDS011;9540;51.550;7.980;2022-08-19T01:13:23;25.63;;;18.38;;
18822;SDS011;9540;51.550;7.980;2022-08-19T01:15:54;24.80;;;17.83;;
18822;SDS011;9540;51.550;7.980;2022-08-19T01:18:23;24.77;;;18.02;;
18822;SDS011;9540;51.550;7.980;2022-08-19T01:20:53;32.25;;;19.70;;
18822;SDS011;9540;51.550;7.980;2022-08-19T01:23:24;29.65;;;21.27;;
18822;SDS011;9540;51.550;7.980;2022-08-19T01:26:08;28.77;;;20.05;;
18822;SDS011;9540;51.550;7.980;2022-08-19T01:28:37;30.58;;;20.83;;
18822;SDS011;9540;51.550;7.980;2022-08-19T01:31:05;28.38;;;19.88;;
18822;SDS011;9540;51.550;7.980;2022-08-19T01:33:36;31.63;;;20.77;;
18822;SDS011;9540;51.550;7.980;2022-08-19T01:36:05;30.73;;;21.52;;
18822;SDS011;9540;51.550;7.980;2022-08-19T01:38:36;33.80;;;20.95;;
18822;SDS011;9540;51.550;7.980;2022-08-19T01:41:06;29.38;;;19.67;;
18822;SDS011;9540;51.550;7.980;2022-08-19T01:43:34;26.45;;;20.00;;
18822;SDS011;9540;51.550;7.980;2022-08-19T01:46:01;31.85;;;20.80;;
18822;SDS011;9540;51.550;7.980;2022-08-19T01:48:32;30.27;;;20.77;;
18822;SDS011;9540;51.550;7.980;2022-08-19T01:51:00;31.75;;;21.10;;
18822;SDS011;9540;51.550;7.980;2022-08-19T01:53:28;32.50;;;21.73;;
18822;SDS011;9540;51.550;7.980;2022-08-19T01:55:57;32.70;;;21.77;;
18822;SDS011;9540;51.550;7.980;2022-08-19T01:58:27;29.13;;;19.95;;
18822;SDS011;9540;51.550;7.980;2022-08-19T02:00:58;28.48;;;19.65;;
18822;SDS011;9540;51.550;7.980;2022-08-19T02:03:25;32.90;;;20.55;;
18822;SDS011;9540;51.550;7.980;2022-08-19T02:05:56;35.22;;;21.38;;
18822;SDS011;9540;51.550;7.980;2022-08-19T02:08:25;34.60;;;22.38;;
18822;SDS011;9540;51.550;7.980;2022-08-19T02:10:52;41.75;;;22.63;;
18822;SDS011;9540;51.550;7.980;2022-08-19T02:13:20;41.15;;;24.95;;
18822;SDS011;9540;51.550;7.980;2022-08-19T02:15:48;39.10;;;23.40;;
18822;SDS011;9540;51.550;7.980;2022-08-19T02:18:15;40.45;;;23.73;;
18822;SDS011;9540;51.550;7.980;2022-08-19T02:20:43;34.60;;;22.80;;
18822;SDS011;9540;51.550;7.980;2022-08-19T02:23:12;31.05;;;20.75;;
18822;SDS011;9540;51.550;7.980;2022-08-19T02:25:40;32.25;;;20.98;;
18822;SDS011;9540;51.550;7.980;2022-08-19T02:28:09;32.63;;;23.02;;
18822;SDS011;9540;51.550;7.980;2022-08-19T02:30:39;35.03;;;22.35;;
18822;SDS011;9540;51.550;7.980;2022-08-19T02:33:08;32.83;;;22.55;;
18822;SDS011;9540;51.550;7.980;2022-08-19T02:35:35;37.40;;;22.90;;
18822;SDS011;9540;51.550;7.980;2022-08-19T02:38:02;31.88;;;22.00;;
18822;SDS011;9540;51.550;7.980;2022-08-19T02:40:50;35.30;;;22.55;;
18822;SDS011;9540;51.550;7.980;2022-08-19T02:43:19;34.38;;;23.10;;
18822;SDS011;9540;51.550;7.980;2022-08-19T02:45:51;35.75;;;23.17;;
18822;SDS011;9540;51.550;7.980;2022-08-19T02:48:19;42.08;;;24.38;;
18822;SDS011;9540;51.550;7.980;2022-08-19T02:50:48;36.72;;;23.42;;
18822;SDS011;9540;51.550;7.980;2022-08-19T02:53:20;34.17;;;24.38;;
18822;SDS011;9540;51.550;7.980;2022-08-19T02:55:48;31.27;;;21.80;;
18822;SDS011;9540;51.550;7.980;2022-08-19T02:58:16;33.60;;;23.13;;
18822;SDS011;9540;51.550;7.980;2022-08-19T03:00:44;35.72;;;22.85;;
18822;SDS011;9540;51.550;7.980;2022-08-19T03:03:15;35.10;;;22.27;;
18822;SDS011;9540;51.550;7.980;2022-08-19T03:05:42;33.13;;;22.40;;
18822;SDS011;9540;51.550;7.980;2022-08-19T03:08:10;40.47;;;24.75;;
18822;SDS011;9540;51.550;7.980;2022-08-19T03:10:42;44.63;;;26.85;;
18822;SDS011;9540;51.550;7.980;2022-08-19T03:13:11;45.55;;;26.60;;
18822;SDS011;9540;51.550;7.980;2022-08-19T03:15:40;42.75;;;26.63;;
18822;SDS011;9540;51.550;7.980;2022-08-19T03:18:09;43.65;;;26.98;;
18822;SDS011;9540;51.550;7.980;2022-08-19T03:20:41;38.67;;;24.50;;
18822;SDS011;9540;51.550;7.980;2022-08-19T03:23:10;37.40;;;25.02;;
18822;SDS011;9540;51.550;7.980;2022-08-19T03:25:38;37.17;;;24.55;;
18822;SDS011;9540;51.550;7.980;2022-08-19T03:28:08;40.03;;;24.52;;
18822;SDS011;9540;51.550;7.980;2022-08-19T03:30:35;35.60;;;23.90;;
18822;SDS011;9540;51.550;7.980;2022-08-19T03:33:02;39.20;;;25.58;;
18822;SDS011;9540;51.550;7.980;2022-08-19T03:35:30;42.13;;;25.42;;
18822;SDS011;9540;51.550;7.980;2022-08-19T03:37:59;45.17;;;28.10;;
18822;SDS011;9540;51.550;7.980;2022-08-19T03:40:26;42.88;;;24.55;;
18822;SDS011;9540;51.550;7.980;2022-08-19T03:42:54;43.20;;;24.65;;
18822;SDS011;9540;51.550;7.980;2022-08-19T03:45:22;41.25;;;26.70;;
18822;SDS011;9540;51.550;7.980;2022-08-19T03:47:49;44.92;;;25.05;;
18822;SDS011;9540;51.550;7.980;2022-08-19T03:50:16;41.08;;;25.85;;
18822;SDS011;9540;51.550;7.980;2022-08-19T03:52:47;42.65;;;26.30;;
18822;SDS011;9540;51.550;7.980;2022-08-19T03:55:17;42.42;;;27.73;;
18822;SDS011;9540;51.550;7.980;2022-08-19T03:57:44;46.83;;;26.50;;
18822;SDS011;9540;51.550;7.980;2022-08-19T04:00:14;44.13;;;28.05;;
18822;SDS011;9540;51.550;7.980;2022-08-19T04:02:41;42.33;;;27.38;;
18822;SDS011;9540;51.550;7.980;2022-08-19T04:05:09;47.95;;;28.63;;
18822;SDS011;9540;51.550;7.980;2022-08-19T04:07:36;51.15;;;27.13;;
18822;SDS011;9540;51.550;7.980;2022-08-19T04:10:04;44.20;;;27.20;;
18822;SDS011;9540;51.550;7.980;2022-08-19T04:12:33;40.92;;;25.77;;
18822;SDS011;9540;51.550;7.980;2022-08-19T04:15:00;45.65;;;28.25;;
18822;SDS011;9540;51.550;7.980;2022-08-19T04:17:27;46.03;;;28.17;;
18822;SDS011;9540;51.550;7.980;2022-08-19T04:19:54;43.00;;;27.40;;
18822;SDS011;9540;51.550;7.980;2022-08-19T04:22:21;44.60;;;27.10;;
18822;SDS011;9540;51.550;7.980;2022-08-19T04:24:48;41.83;;;26.77;;
18822;SDS011;9540;51.550;7.980;2022-08-19T04:27:15;42.60;;;26.95;;
18822;SDS011;9540;51.550;7.980;2022-08-19T04:29:44;48.67;;;28.63;;
18822;SDS011;9540;51.550;7.980;2022-08-19T04:32:12;51.70;;;28.55;;
18822;SDS011;9540;51.550;7.980;2022-08-19T04:34:40;52.63;;;29.88;;
18822;SDS011;9540;51.550;7.980;2022-08-19T04:37:08;50.13;;;29.50;;
18822;SDS011;9540;51.550;7.980;2022-08-19T04:39:38;56.40;;;32.30;;
18822;SDS011;9540;51.550;7.980;2022-08-19T04:42:22;59.67;;;32.47;;
18822;SDS011;9540;51.550;7.980;2022-08-19T04:45:08;60.10;;;34.88;;
18822;SDS011;9540;51.550;7.980;2022-08-19T04:47:37;66.68;;;35.47;;
18822;SDS011;9540;51.550;7.980;2022-08-19T04:50:06;74.93;;;38.05;;
18822;SDS011;9540;51.550;7.980;2022-08-19T04:52:36;65.35;;;36.53;;
18822;SDS011;9540;51.550;7.980;2022-08-19T04:55:08;56.80;;;31.52;;
18822;SDS011;9540;51.550;7.980;2022-08-19T04:57:35;53.00;;;29.70;;
18822;SDS011;9540;51.550;7.980;2022-08-19T05:00:05;61.00;;;33.75;;
18822;SDS011;9540;51.550;7.980;2022-08-19T05:02:35;57.75;;;33.80;;
18822;SDS011;9540;51.550;7.980;2022-08-19T05:05:02;52.65;;;30.77;;
18822;SDS011;9540;51.550;7.980;2022-08-19T05:07:31;57.13;;;33.92;;
18822;SDS011;9540;51.550;7.980;2022-08-19T05:09:59;58.08;;;32.25;;
18822;SDS011;9540;51.550;7.980;2022-08-19T05:12:26;49.42;;;29.25;;
18822;SDS011;9540;51.550;7.980;2022-08-19T05:14:54;50.83;;;30.95;;
18822;SDS011;9540;51.550;7.980;2022-08-19T05:17:23;53.63;;;30.98;;
18822;SDS011;9540;51.550;7.980;2022-08-19T05:19:51;58.03;;;33.00;;
18822;SDS011;9540;51.550;7.980;2022-08-19T05:22:36;55.25;;;32.50;;
18822;SDS011;9540;51.550;7.980;2022-08-19T05:25:04;52.42;;;31.02;;
18822;SDS011;9540;51.550;7.980;2022-08-19T05:27:33;64.43;;;34.28;;
18822;SDS011;9540;51.550;7.980;2022-08-19T05:30:00;52.08;;;29.65;;
18822;SDS011;9540;51.550;7.980;2022-08-19T05:32:29;62.70;;;35.83;;
18822;SDS011;9540;51.550;7.980;2022-08-19T05:34:56;61.33;;;34.90;;
18822;SDS011;9540;51.550;7.980;2022-08-19T05:37:23;59.40;;;34.10;;
18822;SDS011;9540;51.550;7.980;2022-08-19T05:39:52;57.88;;;33.88;;
18822;SDS011;9540;51.550;7.980;2022-08-19T05:42:20;66.20;;;37.70;;
18822;SDS011;9540;51.550;7.980;2022-08-19T05:44:48;58.28;;;33.05;;
18822;SDS011;9540;51.550;7.980;2022-08-19T05:47:16;56.78;;;32.75;;
18822;SDS011;9540;51.550;7.980;2022-08-19T05:49:47;54.88;;;31.63;;
18822;SDS011;9540;51.550;7.980;2022-08-19T05:52:16;56.30;;;31.23;;
18822;SDS011;9540;51.550;7.980;2022-08-19T05:54:43;58.33;;;33.40;;
18822;SDS011;9540;51.550;7.980;2022-08-19T05:57:14;65.90;;;32.63;;
18822;SDS011;9540;51.550;7.980;2022-08-19T05:59:42;52.42;;;32.13;;
18822;SDS011;9540;51.550;7.980;2022-08-19T06:02:16;63.78;;;37.55;;
18822;SDS011;9540;51.550;7.980;2022-08-19T06:04:44;64.32;;;35.83;;
18822;SDS011;9540;51.550;7.980;2022-08-19T06:07:12;65.30;;;36.80;;
18822;SDS011;9540;51.550;7.980;2022-08-19T06:09:40;62.63;;;35.72;;
18822;SDS011;9540;51.550;7.980;2022-08-19T06:12:08;55.58;;;34.25;;
18822;SDS011;9540;51.550;7.980;2022-08-19T06:14:35;60.45;;;34.95;;
18822;SDS011;9540;51.550;7.980;2022-08-19T06:17:02;59.17;;;34.33;;
18822;SDS011;9540;51.550;7.980;2022-08-19T06:19:30;52.08;;;32.50;;
18822;SDS011;9540;51.550;7.980;2022-08-19T06:21:58;47.42;;;29.88;;
18822;SDS011;9540;51.550;7.980;2022-08-19T06:24:29;44.33;;;28.58;;
18822;SDS011;9540;51.550;7.980;2022-08-19T06:26:57;45.80;;;30.00;;
18822;SDS011;9540;51.550;7.980;2022-08-19T06:29:26;47.70;;;28.95;;
18822;SDS011;9540;51.550;7.980;2022-08-19T06:31:55;50.55;;;28.98;;
18822;SDS011;9540;51.550;7.980;2022-08-19T06:34:24;41.88;;;26.50;;
18822;SDS011;9540;51.550;7.980;2022-08-19T06:36:54;41.50;;;25.27;;
18822;SDS011;9540;51.550;7.980;2022-08-19T06:39:30;34.60;;;23.17;;
18822;SDS011;9540;51.550;7.980;2022-08-19T06:41:59;43.05;;;28.45;;
18822;SDS011;9540;51.550;7.980;2022-08-19T06:44:28;42.45;;;26.13;;
18822;SDS011;9540;51.550;7.980;2022-08-19T06:47:00;38.90;;;25.38;;
18822;SDS011;9540;51.550;7.980;2022-08-19T06:49:28;33.28;;;21.75;;
18822;SDS011;9540;51.550;7.980;2022-08-19T06:51:56;39.50;;;25.08;;
18822;SDS011;9540;51.550;7.980;2022-08-19T06:54:23;39.08;;;25.08;;
18822;SDS011;9540;51.550;7.980;2022-08-19T06:56:53;45.03;;;27.52;;
18822;SDS011;9540;51.550;7.980;2022-08-19T06:59:21;40.60;;;27.73;;
18822;SDS011;9540;51.550;7.980;2022-08-19T07:01:53;43.28;;;28.08;;
18822;SDS011;9540;51.550;7.980;2022-08-19T07:04:23;38.55;;;26.90;;
18822;SDS011;9540;51.550;7.980;2022-08-19T07:06:56;43.92;;;25.88;;
18822;SDS011;9540;51.550;7.980;2022-08-19T07:09:25;40.30;;;28.17;;
18822;SDS011;9540;51.550;7.980;2022-08-19T07:11:54;41.90;;;27.10;;
18822;SDS011;9540;51.550;7.980;2022-08-19T07:14:23;43.08;;;24.48;;
18822;SDS011;9540;51.550;7.980;2022-08-19T07:16:53;46.38;;;24.17;;
18822;SDS011;9540;51.550;7.980;2022-08-19T07:19:22;32.10;;;22.13;;
18822;SDS011;9540;51.550;7.980;2022-08-19T07:21:52;29.52;;;20.85;;
18822;SDS011;9540;51.550;7.980;2022-08-19T07:24:19;33.08;;;22.38;;
18822;SDS011;9540;51.550;7.980;2022-08-19T07:26:49;29.17;;;18.92;;
18822;SDS011;9540;51.550;7.980;2022-08-19T07:29:19;23.92;;;16.10;;
18822;SDS011;9540;51.550;7.980;2022-08-19T07:31:48;31.00;;;18.63;;
18822;SDS011;9540;51.550;7.980;2022-08-19T07:34:16;28.02;;;18.27;;
18822;SDS011;9540;51.550;7.980;2022-08-19T07:36:43;21.70;;;15.07;;
18822;SDS011;9540;51.550;7.980;2022-08-19T07:39:13;24.55;;;16.27;;
18822;SDS011;9540;51.550;7.980;2022-08-19T07:41:41;26.73;;;17.95;;
18822;SDS011;9540;51.550;7.980;2022-08-19T07:44:09;29.13;;;18.40;;
18822;SDS011;9540;51.550;7.980;2022-08-19T07:46:39;26.73;;;18.48;;
18822;SDS011;9540;51.550;7.980;2022-08-19T07:49:09;25.98;;;16.50;;
18822;SDS011;9540;51.550;7.980;2022-08-19T07:51:44;16.55;;;12.70;;
18822;SDS011;9540;51.550;7.980;2022-08-19T07:54:13;18.85;;;12.43;;
18822;SDS011;9540;51.550;7.980;2022-08-19T07:56:40;19.35;;;12.93;;
18822;SDS011;9540;51.550;7.980;2022-08-19T07:59:07;22.45;;;16.15;;
18822;SDS011;9540;51.550;7.980;2022-08-19T08:01:35;19.83;;;14.20;;
18822;SDS011;9540;51.550;7.980;2022-08-19T08:04:06;19.77;;;13.30;;
18822;SDS011;9540;51.550;7.980;2022-08-19T08:06:51;17.33;;;11.98;;
18822;SDS011;9540;51.550;7.980;2022-08-19T08:09:36;16.98;;;12.57;;
18822;SDS011;9540;51.550;7.980;2022-08-19T08:12:06;20.00;;;13.23;;
18822;SDS011;9540;51.550;7.980;2022-08-19T08:14:37;18.15;;;12.02;;
18822;SDS011;9540;51.550;7.980;2022-08-19T08:17:07;18.10;;;12.68;;
18822;SDS011;9540;51.550;7.980;2022-08-19T08:19:36;21.67;;;13.88;;
18822;SDS011;9540;51.550;7.980;2022-08-19T08:22:04;19.60;;;14.02;;
18822;SDS011;9540;51.550;7.980;2022-08-19T08:24:32;21.27;;;13.45;;
18822;SDS011;9540;51.550;7.980;2022-08-19T08:27:00;16.70;;;13.07;;
18822;SDS011;9540;51.550;7.980;2022-08-19T08:29:29;18.85;;;13.68;;
18822;SDS011;9540;51.550;7.980;2022-08-19T08:31:58;16.20;;;11.82;;
18822;SDS011;9540;51.550;7.980;2022-08-19T08:34:25;19.60;;;13.15;;
18822;SDS011;9540;51.550;7.980;2022-08-19T08:36:54;21.48;;;12.45;;
18822;SDS011;9540;51.550;7.980;2022-08-19T08:39:21;21.85;;;13.40;;
18822;SDS011;9540;51.550;7.980;2022-08-19T08:41:50;16.52;;;10.95;;
18822;SDS011;9540;51.550;7.980;2022-08-19T08:44:23;20.52;;;12.90;;
18822;SDS011;9540;51.550;7.980;2022-08-19T08:46:58;22.02;;;14.25;;
18822;SDS011;9540;51.550;7.980;2022-08-19T08:49:29;20.70;;;13.50;;
18822;SDS011;9540;51.550;7.980;2022-08-19T08:52:05;24.17;;;13.90;;
18822;SDS011;9540;51.550;7.980;2022-08-19T08:54:35;20.02;;;13.10;;
18822;SDS011;9540;51.550;7.980;2022-08-19T08:57:09;18.85;;;11.77;;
18822;SDS011;9540;51.550;7.980;2022-08-19T08:59:40;16.27;;;11.73;;
18822;SDS011;9540;51.550;7.980;2022-08-19T09:02:09;13.15;;;10.10;;
18822;SDS011;9540;51.550;7.980;2022-08-19T09:04:36;18.02;;;12.20;;
18822;SDS011;9540;51.550;7.980;2022-08-19T09:07:16;20.95;;;12.82;;
18822;SDS011;9540;51.550;7.980;2022-08-19T09:09:52;13.90;;;11.57;;
18822;SDS011;9540;51.550;7.980;2022-08-19T09:12:31;22.40;;;13.63;;
18822;SDS011;9540;51.550;7.980;2022-08-19T09:15:09;29.42;;;13.32;;
18822;SDS011;9540;51.550;7.980;2022-08-19T09:17:38;14.82;;;11.27;;
18822;SDS011;9540;51.550;7.980;2022-08-19T09:20:08;18.33;;;12.38;;
18822;SDS011;9540;51.550;7.980;2022-08-19T09:22:43;14.63;;;10.80;;
18822;SDS011;9540;51.550;7.980;2022-08-19T09:25:12;17.25;;;12.20;;
18822;SDS011;9540;51.550;7.980;2022-08-19T09:27:41;18.73;;;12.77;;
18822;SDS011;9540;51.550;7.980;2022-08-19T09:30:11;12.95;;;11.30;;
18822;SDS011;9540;51.550;7.980;2022-08-19T09:32:41;16.70;;;11.95;;
18822;SDS011;9540;51.550;7.980;2022-08-19T09:35:09;15.70;;;12.13;;
18822;SDS011;9540;51.550;7.980;2022-08-19T09:37:36;12.10;;;8.68;;
18822;SDS011;9540;51.550;7.980;2022-08-19T09:40:05;13.35;;;11.60;;
18822;SDS011;9540;51.550;7.980;2022-08-19T09:42:33;15.35;;;11.82;;
18822;SDS011;9540;51.550;7.980;2022-08-19T09:45:03;16.42;;;11.57;;
18822;SDS011;9540;51.550;7.980;2022-08-19T09:47:31;15.32;;;10.00;;
18822;SDS011;9540;51.550;7.980;2022-08-19T09:50:01;13.32;;;9.77;;
18822;SDS011;9540;51.550;7.980;2022-08-19T09:52:28;11.82;;;9.55;;
18822;SDS011;9540;51.550;7.980;2022-08-19T09:54:55;14.57;;;11.13;;
18822;SDS011;9540;51.550;7.980;2022-08-19T09:57:24;14.93;;;11.52;;
18822;SDS011;9540;51.550;7.980;2022-08-19T09:59:51;11.63;;;8.93;;
18822;SDS011;9540;51.550;7.980;2022-08-19T10:02:19;11.00;;;7.80;;
18822;SDS011;9540;51.550;7.980;2022-08-19T10:04:47;11.63;;;8.70;;
18822;SDS011;9540;51.550;7.980;2022-08-19T10:07:31;10.93;;;7.57;;
18822;SDS011;9540;51.550;7.980;2022-08-19T10:09:59;9.05;;;7.88;;
18822;SDS011;9540;51.550;7.980;2022-08-19T10:12:28;10.75;;;8.25;;
18822;SDS011;9540;51.550;7.980;2022-08-19T10:14:55;8.48;;;7.68;;
18822;SDS011;9540;51.550;7.980;2022-08-19T10:17:22;11.10;;;8.38;;
18822;SDS011;9540;51.550;7.980;2022-08-19T10:19:50;10.30;;;8.85;;
18822;SDS011;9540;51.550;7.980;2022-08-19T10:22:18;8.70;;;7.35;;
18822;SDS011;9540;51.550;7.980;2022-08-19T10:24:45;10.57;;;8.55;;
18822;SDS011;9540;51.550;7.980;2022-08-19T10:27:12;12.05;;;9.45;;
18822;SDS011;9540;51.550;7.980;2022-08-19T10:29:41;11.82;;;9.40;;
18822;SDS011;9540;51.550;7.980;2022-08-19T10:32:08;12.55;;;10.38;;
18822;SDS011;9540;51.550;7.980;2022-08-19T10:34:36;10.93;;;8.18;;
18822;SDS011;9540;51.550;7.980;2022-08-19T10:37:04;11.38;;;7.40;;
18822;SDS011;9540;51.550;7.980;2022-08-19T10:39:32;8.30;;;7.50;;
18822;SDS011;9540;51.550;7.980;2022-08-19T10:42:03;10.63;;;9.52;;
18822;SDS011;9540;51.550;7.980;2022-08-19T10:44:32;12.40;;;11.15;;
18822;SDS011;9540;51.550;7.980;2022-08-19T10:47:02;10.82;;;9.60;;
18822;SDS011;9540;51.550;7.980;2022-08-19T10:49:30;11.18;;;9.25;;
18822;SDS011;9540;51.550;7.980;2022-08-19T10:52:17;17.45;;;12.68;;
18822;SDS011;9540;51.550;7.980;2022-08-19T10:54:59;14.88;;;12.23;;
18822;SDS011;9540;51.550;7.980;2022-08-19T10:57:43;15.30;;;13.70;;
18822;SDS011;9540;51.550;7.980;2022-08-19T11:00:12;16.65;;;12.30;;
18822;SDS011;9540;51.550;7.980;2022-08-19T11:02:41;16.02;;;14.18;;
18822;SDS011;9540;51.550;7.980;2022-08-19T11:05:09;17.92;;;15.88;;
18822;SDS011;9540;51.550;7.980;2022-08-19T11:07:37;18.17;;;16.05;;
18822;SDS011;9540;51.550;7.980;2022-08-19T11:10:05;18.98;;;15.07;;
18822;SDS011;9540;51.550;7.980;2022-08-19T11:12:36;26.30;;;15.30;;
18822;SDS011;9540;51.550;7.980;2022-08-19T11:15:05;18.33;;;13.10;;
18822;SDS011;9540;51.550;7.980;2022-08-19T11:17:33;15.15;;;12.45;;
18822;SDS011;9540;51.550;7.980;2022-08-19T11:20:03;12.82;;;10.90;;
18822;SDS011;9540;51.550;7.980;2022-08-19T11:22:31;11.55;;;8.85;;
18822;SDS011;9540;51.550;7.980;2022-08-19T11:24:58;10.82;;;9.32;;
18822;SDS011;9540;51.550;7.980;2022-08-19T11:27:25;11.40;;;9.75;;
18822;SDS011;9540;51.550;7.980;2022-08-19T11:29:54;10.18;;;8.23;;
18822;SDS011;9540;51.550;7.980;2022-08-19T11:32:21;13.93;;;10.70;;
18822;SDS011;9540;51.550;7.980;2022-08-19T11:34:48;11.18;;;8.07;;
18822;SDS011;9540;51.550;7.980;2022-08-19T11:37:16;9.30;;;7.10;;
18822;SDS011;9540;51.550;7.980;2022-08-19T11:39:44;10.15;;;7.60;;
18822;SDS011;9540;51.550;7.980;2022-08-19T11:42:11;8.52;;;7.15;;
18822;SDS011;9540;51.550;7.980;2022-08-19T11:45:04;7.97;;;7.28;;
18822;SDS011;9540;51.550;7.980;2022-08-19T11:47:32;9.77;;;5.80;;
18822;SDS011;9540;51.550;7.980;2022-08-19T11:49:59;6.57;;;5.82;;
18822;SDS011;9540;51.550;7.980;2022-08-19T11:52:28;7.55;;;6.78;;
18822;SDS011;9540;51.550;7.980;2022-08-19T11:54:55;10.13;;;5.57;;
18822;SDS011;9540;51.550;7.980;2022-08-19T11:57:22;14.23;;;6.40;;
18822;SDS011;9540;51.550;7.980;2022-08-19T11:59:50;8.15;;;7.13;;
18822;SDS011;9540;51.550;7.980;2022-08-19T12:02:18;9.02;;;6.65;;
18822;SDS011;9540;51.550;7.980;2022-08-19T12:04:46;8.30;;;7.50;;
18822;SDS011;9540;51.550;7.980;2022-08-19T12:07:13;8.95;;;7.38;;
18822;SDS011;9540;51.550;7.980;2022-08-19T12:09:42;10.35;;;7.43;;
18822;SDS011;9540;51.550;7.980;2022-08-19T12:12:09;10.63;;;7.30;;
18822;SDS011;9540;51.550;7.980;2022-08-19T12:14:37;12.52;;;6.40;;
18822;SDS011;9540;51.550;7.980;2022-08-19T12:17:04;9.27;;;6.75;;
18822;SDS011;9540;51.550;7.980;2022-08-19T12:19:33;8.93;;;6.45;;
18822;SDS011;9540;51.550;7.980;2022-08-19T12:22:02;8.10;;;6.43;;
18822;SDS011;9540;51.550;7.980;2022-08-19T12:24:31;6.50;;;4.90;;
18822;SDS011;9540;51.550;7.980;2022-08-19T12:27:00;7.03;;;4.50;;
18822;SDS011;9540;51.550;7.980;2022-08-19T12:29:28;5.75;;;4.82;;
18822;SDS011;9540;51.550;7.980;2022-08-19T12:31:56;5.82;;;4.95;;
18822;SDS011;9540;51.550;7.980;2022-08-19T12:34:27;7.30;;;4.88;;
18822;SDS011;9540;51.550;7.980;2022-08-19T12:36:56;7.05;;;4.95;;
18822;SDS011;9540;51.550;7.980;2022-08-19T12:39:24;4.53;;;4.13;;
18822;SDS011;9540;51.550;7.980;2022-08-19T12:41:52;7.03;;;5.30;;
18822;SDS011;9540;51.550;7.980;2022-08-19T12:44:20;6.80;;;4.10;;
18822;SDS011;9540;51.550;7.980;2022-08-19T12:46:48;10.13;;;5.90;;
18822;SDS011;9540;51.550;7.980;2022-08-19T12:49:15;8.45;;;6.22;;
18822;SDS011;9540;51.550;7.980;2022-08-19T12:51:43;10.23;;;6.30;;
18822;SDS011;9540;51.550;7.980;2022-08-19T12:54:11;6.63;;;5.72;;
18822;SDS011;9540;51.550;7.980;2022-08-19T12:56:38;9.70;;;5.55;;
18822;SDS011;9540;51.550;7.980;2022-08-19T12:59:06;7.10;;;6.40;;
18822;SDS011;9540;51.550;7.980;2022-08-19T13:01:35;8.68;;;6.43;;
18822;SDS011;9540;51.550;7.980;2022-08-19T13:04:03;6.82;;;6.07;;
18822;SDS011;9540;51.550;7.980;2022-08-19T13:06:30;5.95;;;5.43;;
18822;SDS011;9540;51.550;7.980;2022-08-19T13:08:57;7.95;;;5.93;;
18822;SDS011;9540;51.550;7.980;2022-08-19T13:11:24;6.32;;;5.65;;
18822;SDS011;9540;51.550;7.980;2022-08-19T13:13:52;6.57;;;5.70;;
18822;SDS011;9540;51.550;7.980;2022-08-19T13:16:21;10.68;;;5.53;;
18822;SDS011;9540;51.550;7.980;2022-08-19T13:18:50;10.40;;;5.95;;
18822;SDS011;9540;51.550;7.980;2022-08-19T13:21:17;7.20;;;6.40;;
18822;SDS011;9540;51.550;7.980;2022-08-19T13:23:48;8.48;;;6.97;;
18822;SDS011;9540;51.550;7.980;2022-08-19T13:26:15;8.60;;;6.80;;
18822;SDS011;9540;51.550;7.980;2022-08-19T13:28:43;15.10;;;6.88;;
18822;SDS011;9540;51.550;7.980;2022-08-19T13:31:29;7.28;;;6.60;;
18822;SDS011;9540;51.550;7.980;2022-08-19T13:34:16;7.55;;;5.88;;
18822;SDS011;9540;51.550;7.980;2022-08-19T13:36:45;6.95;;;6.00;;
18822;SDS011;9540;51.550;7.980;2022-08-19T13:39:12;7.07;;;6.03;;
18822;SDS011;9540;51.550;7.980;2022-08-19T13:41:43;10.38;;;6.57;;
18822;SDS011;9540;51.550;7.980;2022-08-19T13:44:13;8.13;;;6.50;;
18822;SDS011;9540;51.550;7.980;2022-08-19T13:46:43;7.85;;;6.25;;
18822;SDS011;9540;51.550;7.980;2022-08-19T13:49:10;6.43;;;5.75;;
18822;SDS011;9540;51.550;7.980;2022-08-19T13:51:41;5.75;;;5.25;;
18822;SDS011;9540;51.550;7.980;2022-08-19T13:54:09;6.45;;;5.80;;
18822;SDS011;9540;51.550;7.980;2022-08-19T13:56:39;6.57;;;5.60;;
18822;SDS011;9540;51.550;7.980;2022-08-19T13:59:09;6.53;;;6.00;;
18822;SDS011;9540;51.550;7.980;2022-08-19T14:01:36;5.97;;;5.45;;
18822;SDS011;9540;51.550;7.980;2022-08-19T14:04:03;10.32;;;7.25;;
18822;SDS011;9540;51.550;7.980;2022-08-19T14:06:31;8.20;;;7.25;;
18822;SDS011;9540;51.550;7.980;2022-08-19T14:09:00;7.38;;;6.32;;
18822;SDS011;9540;51.550;7.980;2022-08-19T14:11:28;9.38;;;7.10;;
18822;SDS011;9540;51.550;7.980;2022-08-19T14:13:55;11.35;;;7.40;;
18822;SDS011;9540;51.550;7.980;2022-08-19T14:16:22;9.90;;;8.02;;
18822;SDS011;9540;51.550;7.980;2022-08-19T14:18:49;9.73;;;7.03;;
18822;SDS011;9540;51.550;7.980;2022-08-19T14:21:19;11.32;;;6.55;;
18822;SDS011;9540;51.550;7.980;2022-08-19T14:23:48;9.52;;;6.30;;
18822;SDS011;9540;51.550;7.980;2022-08-19T14:26:17;9.43;;;6.68;;
18822;SDS011;9540;51.550;7.980;2022-08-19T14:28:49;7.80;;;6.85;;
18822;SDS011;9540;51.550;7.980;2022-08-19T14:31:17;7.45;;;6.47;;
18822;SDS011;9540;51.550;7.980;2022-08-19T14:33:46;8.27;;;7.35;;
18822;SDS011;9540;51.550;7.980;2022-08-19T14:36:15;10.10;;;6.90;;
18822;SDS011;9540;51.550;7.980;2022-08-19T14:38:43;8.63;;;7.82;;
18822;SDS011;9540;51.550;7.980;2022-08-19T14:41:12;10.07;;;7.95;;
18822;SDS011;9540;51.550;7.980;2022-08-19T14:43:45;10.52;;;6.82;;
18822;SDS011;9540;51.550;7.980;2022-08-19T14:46:15;8.77;;;6.88;;
18822;SDS011;9540;51.550;7.980;2022-08-19T14:48:44;7.47;;;6.18;;
18822;SDS011;9540;51.550;7.980;2022-08-19T14:51:12;6.72;;;5.82;;
18822;SDS011;9540;51.550;7.980;2022-08-19T14:53:39;7.60;;;6.70;;